sensor_id;sensor_type;location;lat;lon;timestamp;P1;durP1;ratioP1;P2;durP2;ratioP2
15843;SDS011;50807;52.436;13.346;2023-12-14T00:00:26;5.53;;;5.03;;
15843;SDS011;50807;52.436;13.346;2023-12-14T00:00:57;6.07;;;5.47;;
15843;SDS011;50807;52.436;13.346;2023-12-14T00:01:28;6.38;;;5.78;;
15843;SDS011;50807;52.436;13.346;2023-12-14T00:01:59;6.97;;;6.37;;
15843;SDS011;50807;52.436;13.346;2023-12-14T00:02:30;6.97;;;6.37;;
15843;SDS011;50807;52.436;13.346;2023-12-14T00:03:00;5.83;;;5.33;;
15843;SDS011;50807;52.436;13.346;2023-12-14T00:03:32;6.22;;;5.68;;
15843;SDS011;50807;52.436;13.346;2023-12-14T00:04:04;6.07;;;5.57;;
15843;SDS011;50807;52.436;13.346;2023-12-14T00:04:35;6.23;;;5.63;;
15843;SDS011;50807;52.436;13.346;2023-12-14T00:05:06;7.47;;;6.17;;
15843;SDS011;50807;52.436;13.346;2023-12-14T00:05:38;6.57;;;5.97;;
15843;SDS011;50807;52.436;13.346;2023-12-14T00:06:08;6.40;;;5.80;;
15843;SDS011;50807;52.436;13.346;2023-12-14T00:06:40;6.40;;;5.80;;
15843;SDS011;50807;52.436;13.346;2023-12-14T00:07:10;6.23;;;5.63;;
15843;SDS011;50807;52.436;13.346;2023-12-14T00:07:44;7.30;;;6.43;;
15843;SDS011;50807;52.436;13.346;2023-12-14T00:08:16;6.30;;;5.77;;
15843;SDS011;50807;52.436;13.346;2023-12-14T00:08:47;6.57;;;5.97;;
15843;SDS011;50807;52.436;13.346;2023-12-14T00:09:18;6.87;;;6.27;;
15843;SDS011;50807;52.436;13.346;2023-12-14T00:09:49;6.65;;;6.05;;
15843;SDS011;50807;52.436;13.346;2023-12-14T00:10:20;6.87;;;6.27;;
15843;SDS011;50807;52.436;13.346;2023-12-14T00:10:51;6.30;;;5.70;;
15843;SDS011;50807;52.436;13.346;2023-12-14T00:11:22;6.57;;;5.97;;
15843;SDS011;50807;52.436;13.346;2023-12-14T00:11:52;7.13;;;6.53;;
15843;SDS011;50807;52.436;13.346;2023-12-14T00:12:24;7.18;;;6.53;;
15843;SDS011;50807;52.436;13.346;2023-12-14T00:12:55;6.40;;;5.80;;
15843;SDS011;50807;52.436;13.346;2023-12-14T00:13:25;6.60;;;6.00;;
15843;SDS011;50807;52.436;13.346;2023-12-14T00:13:56;7.10;;;6.40;;
15843;SDS011;50807;52.436;13.346;2023-12-14T00:14:28;7.22;;;6.55;;
15843;SDS011;50807;52.436;13.346;2023-12-14T00:14:59;7.20;;;6.50;;
15843;SDS011;50807;52.436;13.346;2023-12-14T00:15:29;6.90;;;6.20;;
15843;SDS011;50807;52.436;13.346;2023-12-14T00:16:00;6.87;;;6.23;;
15843;SDS011;50807;52.436;13.346;2023-12-14T00:16:32;6.90;;;6.30;;
15843;SDS011;50807;52.436;13.346;2023-12-14T00:17:04;6.75;;;6.05;;
15843;SDS011;50807;52.436;13.346;2023-12-14T00:17:34;7.67;;;6.97;;
15843;SDS011;50807;52.436;13.346;2023-12-14T00:18:06;7.18;;;6.47;;
15843;SDS011;50807;52.436;13.346;2023-12-14T00:18:36;7.00;;;6.37;;
15843;SDS011;50807;52.436;13.346;2023-12-14T00:19:08;8.18;;;7.28;;
15843;SDS011;50807;52.436;13.346;2023-12-14T00:19:39;7.20;;;6.50;;
15843;SDS011;50807;52.436;13.346;2023-12-14T00:20:10;7.27;;;6.57;;
15843;SDS011;50807;52.436;13.346;2023-12-14T00:20:41;6.72;;;6.13;;
15843;SDS011;50807;52.436;13.346;2023-12-14T00:21:12;8.40;;;7.17;;
15843;SDS011;50807;52.436;13.346;2023-12-14T00:21:43;8.32;;;7.53;;
15843;SDS011;50807;52.436;13.346;2023-12-14T00:22:14;7.60;;;6.60;;
15843;SDS011;50807;52.436;13.346;2023-12-14T00:22:45;7.57;;;6.87;;
15843;SDS011;50807;52.436;13.346;2023-12-14T00:23:17;7.27;;;6.57;;
15843;SDS011;50807;52.436;13.346;2023-12-14T00:23:49;6.85;;;6.00;;
15843;SDS011;50807;52.436;13.346;2023-12-14T00:24:20;7.40;;;6.70;;
15843;SDS011;50807;52.436;13.346;2023-12-14T00:24:51;7.10;;;6.50;;
15843;SDS011;50807;52.436;13.346;2023-12-14T00:25:21;7.03;;;6.43;;
15843;SDS011;50807;52.436;13.346;2023-12-14T00:25:53;8.18;;;7.38;;
15843;SDS011;50807;52.436;13.346;2023-12-14T00:26:24;8.30;;;7.50;;
15843;SDS011;50807;52.436;13.346;2023-12-14T00:26:55;8.20;;;7.40;;
15843;SDS011;50807;52.436;13.346;2023-12-14T00:27:25;7.60;;;6.90;;
15843;SDS011;50807;52.436;13.346;2023-12-14T00:27:57;8.20;;;7.45;;
15843;SDS011;50807;52.436;13.346;2023-12-14T00:28:28;8.23;;;7.43;;
15843;SDS011;50807;52.436;13.346;2023-12-14T00:28:58;8.07;;;7.33;;
15843;SDS011;50807;52.436;13.346;2023-12-14T00:29:29;7.80;;;7.10;;
15843;SDS011;50807;52.436;13.346;2023-12-14T00:30:02;7.72;;;6.70;;
15843;SDS011;50807;52.436;13.346;2023-12-14T00:30:33;8.27;;;7.57;;
15843;SDS011;50807;52.436;13.346;2023-12-14T00:31:04;8.17;;;7.37;;
15843;SDS011;50807;52.436;13.346;2023-12-14T00:31:35;8.43;;;7.63;;
15843;SDS011;50807;52.436;13.346;2023-12-14T00:32:07;7.80;;;7.10;;
15843;SDS011;50807;52.436;13.346;2023-12-14T00:32:38;8.90;;;8.00;;
15843;SDS011;50807;52.436;13.346;2023-12-14T00:33:08;8.83;;;7.93;;
15843;SDS011;50807;52.436;13.346;2023-12-14T00:33:39;8.93;;;8.03;;
15843;SDS011;50807;52.436;13.346;2023-12-14T00:34:11;8.95;;;8.15;;
15843;SDS011;50807;52.436;13.346;2023-12-14T00:34:42;7.60;;;6.90;;
15843;SDS011;50807;52.436;13.346;2023-12-14T00:35:12;8.70;;;7.87;;
15843;SDS011;50807;52.436;13.346;2023-12-14T00:35:44;8.02;;;7.22;;
15843;SDS011;50807;52.436;13.346;2023-12-14T00:36:18;8.60;;;7.80;;
15843;SDS011;50807;52.436;13.346;2023-12-14T00:36:49;9.30;;;8.40;;
15843;SDS011;50807;52.436;13.346;2023-12-14T00:37:19;8.70;;;7.90;;
15843;SDS011;50807;52.436;13.346;2023-12-14T00:37:51;9.00;;;8.10;;
15843;SDS011;50807;52.436;13.346;2023-12-14T00:38:23;9.40;;;8.57;;
15843;SDS011;50807;52.436;13.346;2023-12-14T00:38:54;8.77;;;7.90;;
15843;SDS011;50807;52.436;13.346;2023-12-14T00:39:25;8.60;;;7.75;;
15843;SDS011;50807;52.436;13.346;2023-12-14T00:39:56;10.00;;;8.20;;
15843;SDS011;50807;52.436;13.346;2023-12-14T00:40:27;9.00;;;8.10;;
15843;SDS011;50807;52.436;13.346;2023-12-14T00:40:58;8.93;;;8.10;;
15843;SDS011;50807;52.436;13.346;2023-12-14T00:41:29;9.53;;;8.63;;
15843;SDS011;50807;52.436;13.346;2023-12-14T00:42:01;9.30;;;8.40;;
15843;SDS011;50807;52.436;13.346;2023-12-14T00:42:31;8.83;;;7.93;;
15843;SDS011;50807;52.436;13.346;2023-12-14T00:43:02;9.10;;;8.30;;
15843;SDS011;50807;52.436;13.346;2023-12-14T00:43:33;8.93;;;8.13;;
15843;SDS011;50807;52.436;13.346;2023-12-14T00:44:03;8.13;;;7.40;;
15843;SDS011;50807;52.436;13.346;2023-12-14T00:44:35;8.70;;;7.90;;
15843;SDS011;50807;52.436;13.346;2023-12-14T00:45:06;9.07;;;8.17;;
15843;SDS011;50807;52.436;13.346;2023-12-14T00:45:38;8.48;;;7.68;;
15843;SDS011;50807;52.436;13.346;2023-12-14T00:46:11;8.30;;;7.57;;
15843;SDS011;50807;52.436;13.346;2023-12-14T00:46:43;8.73;;;7.93;;
15843;SDS011;50807;52.436;13.346;2023-12-14T00:47:13;9.10;;;8.30;;
15843;SDS011;50807;52.436;13.346;2023-12-14T00:47:44;9.13;;;8.23;;
15843;SDS011;50807;52.436;13.346;2023-12-14T00:48:15;9.53;;;8.63;;
15843;SDS011;50807;52.436;13.346;2023-12-14T00:48:46;9.60;;;8.70;;
15843;SDS011;50807;52.436;13.346;2023-12-14T00:49:17;9.10;;;8.30;;
15843;SDS011;50807;52.436;13.346;2023-12-14T00:49:49;9.10;;;8.20;;
15843;SDS011;50807;52.436;13.346;2023-12-14T00:50:20;9.03;;;8.13;;
15843;SDS011;50807;52.436;13.346;2023-12-14T00:50:51;9.18;;;8.27;;
15843;SDS011;50807;52.436;13.346;2023-12-14T00:51:22;9.60;;;8.63;;
15843;SDS011;50807;52.436;13.346;2023-12-14T00:51:53;6.37;;;5.87;;
15843;SDS011;50807;52.436;13.346;2023-12-14T00:52:25;8.73;;;7.93;;
15843;SDS011;50807;52.436;13.346;2023-12-14T00:52:55;8.10;;;7.33;;
15843;SDS011;50807;52.436;13.346;2023-12-14T00:53:27;9.13;;;8.23;;
15843;SDS011;50807;52.436;13.346;2023-12-14T00:53:59;9.38;;;8.48;;
15843;SDS011;50807;52.436;13.346;2023-12-14T00:54:30;9.90;;;8.93;;
15843;SDS011;50807;52.436;13.346;2023-12-14T00:55:00;8.57;;;7.87;;
15843;SDS011;50807;52.436;13.346;2023-12-14T00:55:32;8.95;;;8.05;;
15843;SDS011;50807;52.436;13.346;2023-12-14T00:56:03;9.97;;;9.03;;
15843;SDS011;50807;52.436;13.346;2023-12-14T00:56:37;9.63;;;8.73;;
15843;SDS011;50807;52.436;13.346;2023-12-14T00:57:07;8.83;;;8.03;;
15843;SDS011;50807;52.436;13.346;2023-12-14T00:57:39;8.90;;;8.10;;
15843;SDS011;50807;52.436;13.346;2023-12-14T00:58:10;8.90;;;8.10;;
15843;SDS011;50807;52.436;13.346;2023-12-14T00:58:42;8.45;;;7.65;;
15843;SDS011;50807;52.436;13.346;2023-12-14T00:59:13;9.07;;;8.23;;
15843;SDS011;50807;52.436;13.346;2023-12-14T00:59:45;9.32;;;8.43;;
15843;SDS011;50807;52.436;13.346;2023-12-14T01:00:16;9.17;;;8.37;;
15843;SDS011;50807;52.436;13.346;2023-12-14T01:00:48;10.48;;;8.77;;
15843;SDS011;50807;52.436;13.346;2023-12-14T01:01:18;8.60;;;7.80;;
15843;SDS011;50807;52.436;13.346;2023-12-14T01:01:49;8.93;;;8.13;;
15843;SDS011;50807;52.436;13.346;2023-12-14T01:02:21;9.25;;;8.35;;
15843;SDS011;50807;52.436;13.346;2023-12-14T01:02:52;9.00;;;8.20;;
15843;SDS011;50807;52.436;13.346;2023-12-14T01:03:22;8.70;;;7.90;;
15843;SDS011;50807;52.436;13.346;2023-12-14T01:03:53;8.53;;;7.73;;
15843;SDS011;50807;52.436;13.346;2023-12-14T01:04:25;8.88;;;8.07;;
15843;SDS011;50807;52.436;13.346;2023-12-14T01:04:56;9.47;;;8.57;;
15843;SDS011;50807;52.436;13.346;2023-12-14T01:05:26;9.47;;;8.57;;
15843;SDS011;50807;52.436;13.346;2023-12-14T01:05:57;8.67;;;7.87;;
15843;SDS011;50807;52.436;13.346;2023-12-14T01:06:29;7.47;;;6.88;;
15843;SDS011;50807;52.436;13.346;2023-12-14T01:06:59;9.50;;;8.60;;
15843;SDS011;50807;52.436;13.346;2023-12-14T01:07:30;8.83;;;8.00;;
15843;SDS011;50807;52.436;13.346;2023-12-14T01:08:01;9.00;;;8.20;;
15843;SDS011;50807;52.436;13.346;2023-12-14T01:08:33;9.33;;;8.43;;
15843;SDS011;50807;52.436;13.346;2023-12-14T01:09:04;9.18;;;8.18;;
15843;SDS011;50807;52.436;13.346;2023-12-14T01:09:35;9.40;;;8.40;;
15843;SDS011;50807;52.436;13.346;2023-12-14T01:10:06;8.90;;;8.03;;
15843;SDS011;50807;52.436;13.346;2023-12-14T01:10:38;9.05;;;8.05;;
15843;SDS011;50807;52.436;13.346;2023-12-14T01:11:10;9.00;;;8.15;;
15843;SDS011;50807;52.436;13.346;2023-12-14T01:11:40;9.53;;;8.63;;
15843;SDS011;50807;52.436;13.346;2023-12-14T01:12:11;8.37;;;7.63;;
15843;SDS011;50807;52.436;13.346;2023-12-14T01:12:42;8.63;;;7.83;;
15843;SDS011;50807;52.436;13.346;2023-12-14T01:13:13;8.70;;;7.90;;
15843;SDS011;50807;52.436;13.346;2023-12-14T01:13:44;8.70;;;7.90;;
15843;SDS011;50807;52.436;13.346;2023-12-14T01:14:15;8.57;;;7.67;;
15843;SDS011;50807;52.436;13.346;2023-12-14T01:14:47;9.07;;;8.05;;
15843;SDS011;50807;52.436;13.346;2023-12-14T01:15:17;8.67;;;7.87;;
15843;SDS011;50807;52.436;13.346;2023-12-14T01:15:48;9.33;;;8.43;;
15843;SDS011;50807;52.436;13.346;2023-12-14T01:16:19;9.40;;;8.50;;
15843;SDS011;50807;52.436;13.346;2023-12-14T01:16:49;9.37;;;8.47;;
15843;SDS011;50807;52.436;13.346;2023-12-14T01:17:21;8.50;;;7.70;;
15843;SDS011;50807;52.436;13.346;2023-12-14T01:17:52;8.33;;;7.53;;
15843;SDS011;50807;52.436;13.346;2023-12-14T01:18:22;8.90;;;8.10;;
15843;SDS011;50807;52.436;13.346;2023-12-14T01:18:54;9.27;;;8.40;;
15843;SDS011;50807;52.436;13.346;2023-12-14T01:19:26;8.45;;;7.65;;
15843;SDS011;50807;52.436;13.346;2023-12-14T01:19:57;8.50;;;7.70;;
15843;SDS011;50807;52.436;13.346;2023-12-14T01:20:27;8.97;;;8.13;;
15843;SDS011;50807;52.436;13.346;2023-12-14T01:20:59;8.75;;;7.95;;
15843;SDS011;50807;52.436;13.346;2023-12-14T01:21:31;8.98;;;8.07;;
15843;SDS011;50807;52.436;13.346;2023-12-14T01:22:01;8.83;;;7.97;;
15843;SDS011;50807;52.436;13.346;2023-12-14T01:22:32;8.57;;;7.77;;
15843;SDS011;50807;52.436;13.346;2023-12-14T01:23:03;7.90;;;7.15;;
15843;SDS011;50807;52.436;13.346;2023-12-14T01:23:37;8.90;;;8.00;;
15843;SDS011;50807;52.436;13.346;2023-12-14T01:24:08;8.90;;;8.10;;
15843;SDS011;50807;52.436;13.346;2023-12-14T01:24:39;8.57;;;7.77;;
15843;SDS011;50807;52.436;13.346;2023-12-14T01:25:09;8.73;;;7.93;;
15843;SDS011;50807;52.436;13.346;2023-12-14T01:25:41;8.55;;;7.72;;
15843;SDS011;50807;52.436;13.346;2023-12-14T01:26:12;8.93;;;8.13;;
15843;SDS011;50807;52.436;13.346;2023-12-14T01:26:43;8.53;;;7.63;;
15843;SDS011;50807;52.436;13.346;2023-12-14T01:27:15;8.60;;;7.80;;
15843;SDS011;50807;52.436;13.346;2023-12-14T01:27:45;8.70;;;7.90;;
15843;SDS011;50807;52.436;13.346;2023-12-14T01:28:16;8.13;;;7.40;;
15843;SDS011;50807;52.436;13.346;2023-12-14T01:28:47;8.63;;;7.80;;
15843;SDS011;50807;52.436;13.346;2023-12-14T01:29:19;8.07;;;7.35;;
15843;SDS011;50807;52.436;13.346;2023-12-14T01:29:49;8.87;;;8.03;;
15843;SDS011;50807;52.436;13.346;2023-12-14T01:30:20;8.93;;;8.13;;
15843;SDS011;50807;52.436;13.346;2023-12-14T01:30:51;8.93;;;8.13;;
15843;SDS011;50807;52.436;13.346;2023-12-14T01:31:24;7.82;;;7.13;;
15843;SDS011;50807;52.436;13.346;2023-12-14T01:31:54;8.33;;;7.53;;
15843;SDS011;50807;52.436;13.346;2023-12-14T01:32:25;8.90;;;8.10;;
15843;SDS011;50807;52.436;13.346;2023-12-14T01:32:56;9.17;;;8.27;;
15843;SDS011;50807;52.436;13.346;2023-12-14T01:33:28;8.73;;;7.88;;
15843;SDS011;50807;52.436;13.346;2023-12-14T01:33:58;8.73;;;7.93;;
15843;SDS011;50807;52.436;13.346;2023-12-14T01:34:29;9.33;;;8.43;;
15843;SDS011;50807;52.436;13.346;2023-12-14T01:35:00;9.47;;;8.43;;
15843;SDS011;50807;52.436;13.346;2023-12-14T01:35:32;8.73;;;7.93;;
15843;SDS011;50807;52.436;13.346;2023-12-14T01:36:03;8.90;;;8.10;;
15843;SDS011;50807;52.436;13.346;2023-12-14T01:36:34;10.05;;;8.65;;
15843;SDS011;50807;52.436;13.346;2023-12-14T01:37:05;9.50;;;8.60;;
15843;SDS011;50807;52.436;13.346;2023-12-14T01:37:36;9.00;;;8.10;;
15843;SDS011;50807;52.436;13.346;2023-12-14T01:38:07;8.47;;;7.70;;
15843;SDS011;50807;52.436;13.346;2023-12-14T01:38:39;8.67;;;7.87;;
15843;SDS011;50807;52.436;13.346;2023-12-14T01:39:10;9.45;;;8.48;;
15843;SDS011;50807;52.436;13.346;2023-12-14T01:39:42;9.40;;;8.02;;
15843;SDS011;50807;52.436;13.346;2023-12-14T01:40:12;8.77;;;7.93;;
15843;SDS011;50807;52.436;13.346;2023-12-14T01:40:43;9.70;;;8.77;;
15843;SDS011;50807;52.436;13.346;2023-12-14T01:41:14;8.43;;;7.63;;
15843;SDS011;50807;52.436;13.346;2023-12-14T01:41:47;8.80;;;7.93;;
15843;SDS011;50807;52.436;13.346;2023-12-14T01:42:19;6.45;;;5.85;;
15843;SDS011;50807;52.436;13.346;2023-12-14T01:42:50;8.77;;;7.97;;
15843;SDS011;50807;52.436;13.346;2023-12-14T01:43:28;8.00;;;7.20;;
15843;SDS011;50807;52.436;13.346;2023-12-14T01:44:00;8.25;;;7.45;;
15843;SDS011;50807;52.436;13.346;2023-12-14T01:44:32;8.95;;;7.35;;
15843;SDS011;50807;52.436;13.346;2023-12-14T01:45:04;9.57;;;8.07;;
15843;SDS011;50807;52.436;13.346;2023-12-14T01:45:37;8.57;;;7.78;;
15843;SDS011;50807;52.436;13.346;2023-12-14T01:46:09;8.40;;;7.63;;
15843;SDS011;50807;52.436;13.346;2023-12-14T01:46:41;8.38;;;7.57;;
15843;SDS011;50807;52.436;13.346;2023-12-14T01:47:12;8.10;;;7.30;;
15843;SDS011;50807;52.436;13.346;2023-12-14T01:47:44;8.07;;;7.28;;
15843;SDS011;50807;52.436;13.346;2023-12-14T01:48:15;8.40;;;7.57;;
15843;SDS011;50807;52.436;13.346;2023-12-14T01:48:47;7.40;;;6.75;;
15843;SDS011;50807;52.436;13.346;2023-12-14T01:49:18;7.97;;;7.18;;
15843;SDS011;50807;52.436;13.346;2023-12-14T01:49:49;8.37;;;7.57;;
15843;SDS011;50807;52.436;13.346;2023-12-14T01:50:20;7.97;;;7.27;;
15843;SDS011;50807;52.436;13.346;2023-12-14T01:50:51;7.88;;;7.07;;
15843;SDS011;50807;52.436;13.346;2023-12-14T01:51:23;8.55;;;7.65;;
15843;SDS011;50807;52.436;13.346;2023-12-14T01:51:54;9.00;;;7.87;;
15843;SDS011;50807;52.436;13.346;2023-12-14T01:52:24;8.50;;;7.70;;
15843;SDS011;50807;52.436;13.346;2023-12-14T01:52:55;8.20;;;6.87;;
15843;SDS011;50807;52.436;13.346;2023-12-14T01:53:27;7.85;;;7.15;;
15843;SDS011;50807;52.436;13.346;2023-12-14T01:53:59;8.63;;;7.83;;
15843;SDS011;50807;52.436;13.346;2023-12-14T01:54:30;7.90;;;7.10;;
15843;SDS011;50807;52.436;13.346;2023-12-14T01:55:01;7.43;;;6.77;;
15843;SDS011;50807;52.436;13.346;2023-12-14T01:55:33;7.78;;;7.07;;
15843;SDS011;50807;52.436;13.346;2023-12-14T01:56:04;7.72;;;6.93;;
15843;SDS011;50807;52.436;13.346;2023-12-14T01:56:36;7.35;;;6.65;;
15843;SDS011;50807;52.436;13.346;2023-12-14T01:57:07;8.10;;;7.30;;
15843;SDS011;50807;52.436;13.346;2023-12-14T01:57:39;8.23;;;7.25;;
15843;SDS011;50807;52.436;13.346;2023-12-14T01:58:10;7.73;;;6.93;;
15843;SDS011;50807;52.436;13.346;2023-12-14T01:58:40;7.70;;;7.00;;
15843;SDS011;50807;52.436;13.346;2023-12-14T01:59:11;7.90;;;7.10;;
15843;SDS011;50807;52.436;13.346;2023-12-14T01:59:44;8.27;;;7.47;;
15843;SDS011;50807;52.436;13.346;2023-12-14T02:00:18;8.45;;;7.57;;
15843;SDS011;50807;52.436;13.346;2023-12-14T02:01:03;7.28;;;6.57;;
15843;SDS011;50807;52.436;13.346;2023-12-14T02:01:44;7.80;;;7.10;;
15843;SDS011;50807;52.436;13.346;2023-12-14T02:02:18;7.70;;;7.00;;
15843;SDS011;50807;52.436;13.346;2023-12-14T02:02:49;7.82;;;7.00;;
15843;SDS011;50807;52.436;13.346;2023-12-14T02:03:21;8.07;;;7.22;;
15843;SDS011;50807;52.436;13.346;2023-12-14T02:03:53;8.05;;;7.03;;
15843;SDS011;50807;52.436;13.346;2023-12-14T02:04:26;6.78;;;6.18;;
15843;SDS011;50807;52.436;13.346;2023-12-14T02:04:57;6.85;;;6.25;;
15843;SDS011;50807;52.436;13.346;2023-12-14T02:05:27;7.00;;;6.30;;
15843;SDS011;50807;52.436;13.346;2023-12-14T02:05:58;6.95;;;6.35;;
15843;SDS011;50807;52.436;13.346;2023-12-14T02:06:30;7.30;;;6.60;;
15843;SDS011;50807;52.436;13.346;2023-12-14T02:07:02;8.27;;;7.47;;
15843;SDS011;50807;52.436;13.346;2023-12-14T02:07:34;7.50;;;6.78;;
15843;SDS011;50807;52.436;13.346;2023-12-14T02:08:05;6.87;;;6.27;;
15843;SDS011;50807;52.436;13.346;2023-12-14T02:08:37;7.28;;;6.57;;
15843;SDS011;50807;52.436;13.346;2023-12-14T02:09:10;7.13;;;6.47;;
15843;SDS011;50807;52.436;13.346;2023-12-14T02:09:41;7.53;;;6.80;;
15843;SDS011;50807;52.436;13.346;2023-12-14T02:10:12;7.53;;;6.82;;
15843;SDS011;50807;52.436;13.346;2023-12-14T02:10:44;7.38;;;6.68;;
15843;SDS011;50807;52.436;13.346;2023-12-14T02:11:15;6.97;;;6.38;;
15843;SDS011;50807;52.436;13.346;2023-12-14T02:11:46;7.00;;;6.32;;
15843;SDS011;50807;52.436;13.346;2023-12-14T02:12:17;7.10;;;6.40;;
15843;SDS011;50807;52.436;13.346;2023-12-14T02:12:48;6.82;;;6.13;;
15843;SDS011;50807;52.436;13.346;2023-12-14T02:13:19;7.13;;;6.43;;
15843;SDS011;50807;52.436;13.346;2023-12-14T02:13:51;7.55;;;6.65;;
15843;SDS011;50807;52.436;13.346;2023-12-14T02:14:22;7.37;;;6.67;;
15843;SDS011;50807;52.436;13.346;2023-12-14T02:14:55;7.10;;;6.40;;
15843;SDS011;50807;52.436;13.346;2023-12-14T02:15:26;6.55;;;5.95;;
15843;SDS011;50807;52.436;13.346;2023-12-14T02:15:58;6.80;;;6.20;;
15843;SDS011;50807;52.436;13.346;2023-12-14T02:16:29;6.68;;;6.07;;
15843;SDS011;50807;52.436;13.346;2023-12-14T02:17:01;6.88;;;6.28;;
15843;SDS011;50807;52.436;13.346;2023-12-14T02:17:32;6.33;;;5.73;;
15843;SDS011;50807;52.436;13.346;2023-12-14T02:18:04;7.07;;;6.35;;
15843;SDS011;50807;52.436;13.346;2023-12-14T02:18:36;7.68;;;6.50;;
15843;SDS011;50807;52.436;13.346;2023-12-14T02:19:07;6.53;;;5.93;;
15843;SDS011;50807;52.436;13.346;2023-12-14T02:19:38;6.33;;;5.73;;
15843;SDS011;50807;52.436;13.346;2023-12-14T02:20:09;6.57;;;5.97;;
15843;SDS011;50807;52.436;13.346;2023-12-14T02:20:41;6.53;;;5.90;;
15843;SDS011;50807;52.436;13.346;2023-12-14T02:24:45;5.38;;;4.72;;
15843;SDS011;50807;52.436;13.346;2023-12-14T02:25:17;6.22;;;5.25;;
15843;SDS011;50807;52.436;13.346;2023-12-14T02:25:48;5.85;;;4.90;;
15843;SDS011;50807;52.436;13.346;2023-12-14T02:26:19;6.63;;;6.03;;
15843;SDS011;50807;52.436;13.346;2023-12-14T02:26:50;6.43;;;5.83;;
15843;SDS011;50807;52.436;13.346;2023-12-14T02:27:21;5.82;;;5.32;;
15843;SDS011;50807;52.436;13.346;2023-12-14T02:27:52;5.80;;;5.30;;
15843;SDS011;50807;52.436;13.346;2023-12-14T02:28:23;6.00;;;5.50;;
15843;SDS011;50807;52.436;13.346;2023-12-14T02:28:54;5.23;;;4.80;;
15843;SDS011;50807;52.436;13.346;2023-12-14T02:29:26;6.07;;;5.50;;
15843;SDS011;50807;52.436;13.346;2023-12-14T02:29:57;5.57;;;5.07;;
15843;SDS011;50807;52.436;13.346;2023-12-14T02:30:27;5.80;;;5.30;;
15843;SDS011;50807;52.436;13.346;2023-12-14T02:30:58;6.13;;;5.53;;
15843;SDS011;50807;52.436;13.346;2023-12-14T02:31:30;6.25;;;5.65;;
15843;SDS011;50807;52.436;13.346;2023-12-14T02:32:01;5.77;;;5.20;;
15843;SDS011;50807;52.436;13.346;2023-12-14T02:32:31;6.80;;;6.10;;
15843;SDS011;50807;52.436;13.346;2023-12-14T02:33:02;5.90;;;5.40;;
15843;SDS011;50807;52.436;13.346;2023-12-14T02:33:34;6.00;;;5.40;;
15843;SDS011;50807;52.436;13.346;2023-12-14T02:34:05;6.00;;;5.40;;
15843;SDS011;50807;52.436;13.346;2023-12-14T02:34:36;6.13;;;5.53;;
15843;SDS011;50807;52.436;13.346;2023-12-14T02:35:09;5.82;;;5.32;;
15843;SDS011;50807;52.436;13.346;2023-12-14T02:35:42;6.13;;;5.53;;
15843;SDS011;50807;52.436;13.346;2023-12-14T02:36:13;6.38;;;5.78;;
15843;SDS011;50807;52.436;13.346;2023-12-14T02:36:43;6.13;;;5.63;;
15843;SDS011;50807;52.436;13.346;2023-12-14T02:37:14;5.33;;;4.83;;
15843;SDS011;50807;52.436;13.346;2023-12-14T02:37:46;6.43;;;5.40;;
15843;SDS011;50807;52.436;13.346;2023-12-14T02:38:17;6.32;;;5.72;;
15843;SDS011;50807;52.436;13.346;2023-12-14T02:38:48;5.87;;;5.00;;
15843;SDS011;50807;52.436;13.346;2023-12-14T02:39:18;6.37;;;5.77;;
15843;SDS011;50807;52.436;13.346;2023-12-14T02:39:51;5.88;;;5.28;;
15843;SDS011;50807;52.436;13.346;2023-12-14T02:40:22;5.95;;;5.43;;
15843;SDS011;50807;52.436;13.346;2023-12-14T02:40:53;5.80;;;5.20;;
15843;SDS011;50807;52.436;13.346;2023-12-14T02:41:24;6.07;;;5.47;;
15843;SDS011;50807;52.436;13.346;2023-12-14T02:41:55;6.47;;;5.40;;
15843;SDS011;50807;52.436;13.346;2023-12-14T02:42:26;5.60;;;5.10;;
15843;SDS011;50807;52.436;13.346;2023-12-14T02:42:57;6.07;;;5.43;;
15843;SDS011;50807;52.436;13.346;2023-12-14T02:43:28;5.90;;;5.30;;
15843;SDS011;50807;52.436;13.346;2023-12-14T02:43:59;5.20;;;4.80;;
15843;SDS011;50807;52.436;13.346;2023-12-14T02:44:30;5.07;;;4.57;;
15843;SDS011;50807;52.436;13.346;2023-12-14T02:45:01;5.43;;;4.93;;
15843;SDS011;50807;52.436;13.346;2023-12-14T02:45:32;5.75;;;5.25;;
15843;SDS011;50807;52.436;13.346;2023-12-14T02:46:04;5.50;;;5.00;;
15843;SDS011;50807;52.436;13.346;2023-12-14T02:46:35;4.67;;;4.27;;
15843;SDS011;50807;52.436;13.346;2023-12-14T02:47:05;4.70;;;4.30;;
15843;SDS011;50807;52.436;13.346;2023-12-14T02:47:36;4.67;;;4.27;;
15843;SDS011;50807;52.436;13.346;2023-12-14T02:48:08;4.55;;;4.13;;
15843;SDS011;50807;52.436;13.346;2023-12-14T02:48:40;5.10;;;4.60;;
15843;SDS011;50807;52.436;13.346;2023-12-14T02:49:12;4.32;;;4.03;;
15843;SDS011;50807;52.436;13.346;2023-12-14T02:49:43;4.80;;;4.40;;
15843;SDS011;50807;52.436;13.346;2023-12-14T02:50:15;4.80;;;4.40;;
15843;SDS011;50807;52.436;13.346;2023-12-14T02:50:46;5.03;;;4.63;;
15843;SDS011;50807;52.436;13.346;2023-12-14T02:51:17;4.53;;;4.13;;
15843;SDS011;50807;52.436;13.346;2023-12-14T02:51:47;4.13;;;3.73;;
15843;SDS011;50807;52.436;13.346;2023-12-14T02:52:19;4.75;;;4.35;;
15843;SDS011;50807;52.436;13.346;2023-12-14T02:52:50;4.35;;;4.05;;
15843;SDS011;50807;52.436;13.346;2023-12-14T02:53:21;4.70;;;4.23;;
15843;SDS011;50807;52.436;13.346;2023-12-14T02:53:52;4.33;;;3.93;;
15843;SDS011;50807;52.436;13.346;2023-12-14T02:54:23;4.68;;;4.28;;
15843;SDS011;50807;52.436;13.346;2023-12-14T02:54:55;4.40;;;4.03;;
15843;SDS011;50807;52.436;13.346;2023-12-14T02:55:26;4.68;;;4.25;;
15843;SDS011;50807;52.436;13.346;2023-12-14T02:56:00;4.50;;;4.10;;
15843;SDS011;50807;52.436;13.346;2023-12-14T02:56:33;4.30;;;3.95;;
15843;SDS011;50807;52.436;13.346;2023-12-14T02:57:03;4.63;;;4.10;;
15843;SDS011;50807;52.436;13.346;2023-12-14T02:57:34;4.25;;;3.95;;
15843;SDS011;50807;52.436;13.346;2023-12-14T02:58:06;4.43;;;4.03;;
15843;SDS011;50807;52.436;13.346;2023-12-14T02:58:37;4.77;;;4.37;;
15843;SDS011;50807;52.436;13.346;2023-12-14T02:59:08;4.70;;;4.30;;
15843;SDS011;50807;52.436;13.346;2023-12-14T02:59:38;4.17;;;3.87;;
15843;SDS011;50807;52.436;13.346;2023-12-14T03:00:10;4.28;;;3.95;;
15843;SDS011;50807;52.436;13.346;2023-12-14T03:00:42;4.57;;;4.18;;
15843;SDS011;50807;52.436;13.346;2023-12-14T03:01:13;4.53;;;4.13;;
15843;SDS011;50807;52.436;13.346;2023-12-14T03:01:45;4.30;;;3.90;;
15843;SDS011;50807;52.436;13.346;2023-12-14T03:02:16;4.20;;;3.90;;
15843;SDS011;50807;52.436;13.346;2023-12-14T03:02:46;4.10;;;3.80;;
15843;SDS011;50807;52.436;13.346;2023-12-14T03:03:18;4.88;;;4.43;;
15843;SDS011;50807;52.436;13.346;2023-12-14T03:03:49;4.90;;;4.47;;
15843;SDS011;50807;52.436;13.346;2023-12-14T03:04:20;4.50;;;4.10;;
15843;SDS011;50807;52.436;13.346;2023-12-14T03:04:50;4.83;;;4.43;;
15843;SDS011;50807;52.436;13.346;2023-12-14T03:05:21;4.73;;;4.33;;
15843;SDS011;50807;52.436;13.346;2023-12-14T03:05:54;4.80;;;4.40;;
15843;SDS011;50807;52.436;13.346;2023-12-14T03:06:25;4.82;;;4.32;;
15843;SDS011;50807;52.436;13.346;2023-12-14T03:06:55;4.57;;;4.27;;
15843;SDS011;50807;52.436;13.346;2023-12-14T03:07:26;5.83;;;5.23;;
15843;SDS011;50807;52.436;13.346;2023-12-14T03:07:57;5.60;;;5.17;;
15843;SDS011;50807;52.436;13.346;2023-12-14T03:08:28;4.90;;;4.50;;
15843;SDS011;50807;52.436;13.346;2023-12-14T03:08:59;5.17;;;4.77;;
15843;SDS011;50807;52.436;13.346;2023-12-14T03:09:30;5.00;;;4.47;;